Time,TemperatureF,DewpointF,PressureIn,WindDirection,WindDirectionDegrees,WindSpeedMPH,WindSpeedGustMPH,Humidity,HourlyPrecipIn,Conditions,Clouds,dailyrainin,SoftwareType,DateUTC
2013-04-17 00:00:00,47.0,34.6,30.16,SE,139,1.0,1.0,62,0.00,,,0.00,Wunderground v.1.15,2013-04-17 05:00:00,
2013-04-17 00:05:00,47.0,34.6,30.17,ESE,113,1.0,3.0,62,0.00,,,0.00,Wunderground v.1.15,2013-04-17 05:05:00,
2013-04-17 00:10:00,47.0,35.0,30.17,SE,133,1.0,2.0,63,0.00,,,0.00,Wunderground v.1.15,2013-04-17 05:10:00,
2013-04-17 00:15:00,47.0,35.0,30.17,East,101,1.0,2.0,63,0.00,,,0.00,Wunderground v.1.15,2013-04-17 05:15:00,
2013-04-17 00:20:00,46.9,35.0,30.17,ESE,109,1.0,1.0,63,0.00,,,0.00,Wunderground v.1.15,2013-04-17 05:20:00,
2013-04-17 00:30:00,46.9,35.0,30.18,ENE,74,1.0,2.0,63,0.00,,,0.00,Wunderground v.1.15,2013-04-17 05:30:00,
2013-04-17 00:35:00,46.9,35.0,30.18,SE,137,0.0,2.0,63,0.00,,,0.00,Wunderground v.1.15,2013-04-17 05:35:00,
2013-04-17 00:40:00,46.8,34.5,30.17,ESE,104,0.0,2.0,62,0.00,,,0.00,Wunderground v.1.15,2013-04-17 05:40:00,
2013-04-17 00:45:00,46.8,34.9,30.17,South,186,0.0,2.0,63,0.00,,,0.00,Wunderground v.1.15,2013-04-17 05:45:00,
2013-04-17 00:55:00,46.7,34.8,30.17,SSE,160,0.0,2.0,63,0.00,,,0.00,Wunderground v.1.15,2013-04-17 05:55:00,
2013-04-17 01:00:00,46.7,34.8,30.17,NE,45,0.0,2.0,63,0.00,,,0.00,Wunderground v.1.15,2013-04-17 06:00:00,
2013-04-17 01:05:00,46.7,34.8,30.16,NNE,29,0.0,2.0,63,0.00,,,0.00,Wunderground v.1.15,2013-04-17 06:05:00,
2013-04-17 01:10:00,46.6,34.3,30.16,NW,305,0.0,2.0,62,0.00,,,0.00,Wunderground v.1.15,2013-04-17 06:10:00,
2013-04-17 01:15:00,46.6,34.3,30.16,NE,38,1.0,2.0,62,0.00,,,0.00,Wunderground v.1.15,2013-04-17 06:15:00,
2013-04-17 01:20:00,46.5,34.6,30.16,NW,326,0.0,2.0,63,0.00,,,0.00,Wunderground v.1.15,2013-04-17 06:20:00,
2013-04-17 01:30:00,46.4,34.5,30.16,ENE,58,0.0,2.0,63,0.00,,,0.00,Wunderground v.1.15,2013-04-17 06:30:00,
2013-04-17 01:35:00,46.4,34.1,30.16,ESE,119,0.0,2.0,62,0.00,,,0.00,Wunderground v.1.15,2013-04-17 06:35:00,
2013-04-17 01:40:00,46.3,34.4,30.14,West,259,1.0,1.0,63,0.00,,,0.00,Wunderground v.1.15,2013-04-17 06:40:00,
2013-04-17 01:45:00,46.3,34.4,30.15,NNE,29,0.0,2.0,63,0.00,,,0.00,Wunderground v.1.15,2013-04-17 06:45:00,
2013-04-17 01:50:00,46.3,34.4,30.13,NW,316,0.0,2.0,63,0.00,,,0.00,Wunderground v.1.15,2013-04-17 06:50:00,
2013-04-17 01:55:00,46.2,34.3,30.13,West,264,0.0,2.0,63,0.00,,,0.00,Wunderground v.1.15,2013-04-17 06:55:00,
2013-04-17 02:00:00,46.1,34.2,30.12,NNE,12,0.0,2.0,63,0.00,,,0.00,Wunderground v.1.15,2013-04-17 07:00:00,
2013-04-17 02:10:00,46.0,34.1,30.13,East,84,1.0,1.0,63,0.00,,,0.00,Wunderground v.1.15,2013-04-17 07:10:00,
2013-04-17 02:15:00,46.0,34.1,30.13,ENE,70,1.0,2.0,63,0.00,,,0.00,Wunderground v.1.15,2013-04-17 07:15:00,
2013-04-17 02:20:00,45.9,34.4,30.12,East,93,0.0,3.0,64,0.00,,,0.00,Wunderground v.1.15,2013-04-17 07:20:00,
2013-04-17 02:25:00,45.9,34.0,30.11,North,8,1.0,3.0,63,0.00,,,0.00,Wunderground v.1.15,2013-04-17 07:25:00,
2013-04-17 02:30:00,45.9,34.4,30.10,NW,309,1.0,2.0,64,0.00,,,0.00,Wunderground v.1.15,2013-04-17 07:30:00,
2013-04-17 02:35:00,45.8,33.9,30.08,NE,47,1.0,2.0,63,0.00,,,0.00,Wunderground v.1.15,2013-04-17 07:35:00,
2013-04-17 02:45:00,45.7,34.2,30.09,East,84,1.0,2.0,64,0.00,,,0.00,Wunderground v.1.15,2013-04-17 07:45:00,
2013-04-17 02:50:00,45.7,34.2,30.10,West,270,0.0,2.0,64,0.00,,,0.00,Wunderground v.1.15,2013-04-17 07:50:00,
2013-04-17 03:00:00,45.6,34.1,30.09,NNW,328,0.0,2.0,64,0.00,,,0.00,Wunderground v.1.15,2013-04-17 08:00:00,
2013-04-17 03:05:00,45.6,34.1,30.09,NE,51,1.0,2.0,64,0.00,,,0.00,Wunderground v.1.15,2013-04-17 08:05:00,
2013-04-17 03:10:00,45.5,34.4,30.09,ESE,115,1.0,2.0,65,0.00,,,0.00,Wunderground v.1.15,2013-04-17 08:10:00,
2013-04-17 03:15:00,45.5,34.4,30.09,WNW,298,1.0,2.0,65,0.00,,,0.00,Wunderground v.1.15,2013-04-17 08:15:00,
2013-04-17 03:25:00,45.4,34.3,30.08,NW,305,1.0,2.0,65,0.00,,,0.00,Wunderground v.1.15,2013-04-17 08:25:00,
2013-04-17 03:30:00,45.3,34.2,30.07,ESE,113,1.0,1.0,65,0.00,,,0.00,Wunderground v.1.15,2013-04-17 08:30:00,
2013-04-17 03:35:00,45.3,34.2,30.06,East,86,0.0,2.0,65,0.00,,,0.00,Wunderground v.1.15,2013-04-17 08:35:00,
2013-04-17 03:40:00,45.3,34.2,30.07,ESE,117,0.0,2.0,65,0.00,,,0.00,Wunderground v.1.15,2013-04-17 08:40:00,
2013-04-17 03:45:00,45.2,34.5,30.06,East,93,0.0,2.0,66,0.00,,,0.00,Wunderground v.1.15,2013-04-17 08:45:00,
2013-04-17 03:50:00,45.2,34.5,30.07,ESE,121,0.0,2.0,66,0.00,,,0.00,Wunderground v.1.15,2013-04-17 08:50:00,
2013-04-17 03:55:00,45.2,34.5,30.07,SSW,203,0.0,2.0,66,0.00,,,0.00,Wunderground v.1.15,2013-04-17 08:55:00,
2013-04-17 04:05:00,45.2,34.5,30.08,ESE,105,1.0,2.0,66,0.00,,,0.00,Wunderground v.1.15,2013-04-17 09:05:00,
2013-04-17 04:10:00,45.2,34.9,30.08,East,86,1.0,2.0,67,0.00,,,0.00,Wunderground v.1.15,2013-04-17 09:10:00,
2013-04-17 04:15:00,45.2,34.9,30.07,ESE,113,1.0,2.0,67,0.00,,,0.00,Wunderground v.1.15,2013-04-17 09:15:00,
2013-04-17 04:20:00,45.1,34.8,30.05,North,8,1.0,1.0,67,0.00,,,0.00,Wunderground v.1.15,2013-04-17 09:20:00,
2013-04-17 04:25:00,45.1,34.8,30.05,ESE,114,1.0,2.0,67,0.00,,,0.00,Wunderground v.1.15,2013-04-17 09:25:00,
2013-04-17 04:30:00,45.0,35.1,30.05,East,93,1.0,2.0,68,0.00,,,0.00,Wunderground v.1.15,2013-04-17 09:30:00,
2013-04-17 04:40:00,45.0,35.1,30.04,ENE,60,0.0,2.0,68,0.00,,,0.00,Wunderground v.1.15,2013-04-17 09:40:00,
2013-04-17 04:50:00,45.0,35.1,30.04,SSE,155,1.0,2.0,68,0.00,,,0.00,Wunderground v.1.15,2013-04-17 09:50:00,
2013-04-17 04:55:00,44.9,35.0,30.02,ESE,107,1.0,2.0,68,0.00,,,0.00,Wunderground v.1.15,2013-04-17 09:55:00,
2013-04-17 05:00:00,44.9,35.0,30.02,East,86,1.0,1.0,68,0.00,,,0.00,Wunderground v.1.15,2013-04-17 10:00:00,
2013-04-17 05:05:00,44.9,35.3,30.01,South,181,1.0,2.0,69,0.00,,,0.00,Wunderground v.1.15,2013-04-17 10:05:00,
2013-04-17 05:10:00,44.9,35.3,30.03,ENE,70,1.0,1.0,69,0.00,,,0.00,Wunderground v.1.15,2013-04-17 10:10:00,
2013-04-17 05:15:00,44.9,36.1,30.01,East,101,1.0,2.0,71,0.00,,,0.00,Wunderground v.1.15,2013-04-17 10:15:00,
2013-04-17 05:25:00,44.3,36.9,30.01,East,89,0.0,2.0,75,0.00,,,0.00,Wunderground v.1.15,2013-04-17 10:25:00,
2013-04-17 05:30:00,44.1,37.0,30.00,South,179,1.0,1.0,76,0.00,,,0.00,Wunderground v.1.15,2013-04-17 10:30:00,
2013-04-17 05:35:00,43.8,37.4,30.00,East,84,1.0,2.0,78,0.00,,,0.01,Wunderground v.1.15,2013-04-17 10:35:00,
2013-04-17 05:40:00,43.6,37.8,30.01,East,83,1.0,1.0,80,0.00,,,0.01,Wunderground v.1.15,2013-04-17 10:40:00,
2013-04-17 05:45:00,43.3,37.9,30.01,WNW,290,0.0,2.0,81,0.08,,,0.02,Wunderground v.1.15,2013-04-17 10:45:00,
2013-04-17 05:50:00,43.2,37.4,30.02,SE,131,0.0,2.0,80,0.06,,,0.02,Wunderground v.1.15,2013-04-17 10:50:00,
2013-04-17 05:55:00,43.1,38.0,30.06,WNW,284,0.0,2.0,82,0.04,,,0.02,Wunderground v.1.15,2013-04-17 10:55:00,
2013-04-17 06:05:00,42.8,38.6,30.07,West,267,1.0,2.0,85,0.50,,,0.07,Wunderground v.1.15,2013-04-17 11:05:00,
2013-04-17 06:10:00,42.5,38.9,30.07,ESE,107,1.0,1.0,87,0.43,,,0.11,Wunderground v.1.15,2013-04-17 11:10:00,
2013-04-17 06:15:00,42.2,38.9,30.07,ESE,105,0.0,2.0,88,0.21,,,0.13,Wunderground v.1.15,2013-04-17 11:15:00,
2013-04-17 06:20:00,42.0,39.0,30.07,West,260,0.0,2.0,89,0.24,,,0.15,Wunderground v.1.15,2013-04-17 11:20:00,
2013-04-17 06:25:00,41.9,38.9,30.07,West,259,0.0,2.0,89,0.20,,,0.17,Wunderground v.1.15,2013-04-17 11:25:00,
2013-04-17 06:30:00,41.7,39.0,30.08,West,259,0.0,2.0,90,0.21,,,0.19,Wunderground v.1.15,2013-04-17 11:30:00,
2013-04-17 06:35:00,41.7,39.3,30.07,WNW,285,0.0,2.0,91,0.21,,,0.21,Wunderground v.1.15,2013-04-17 11:35:00,
2013-04-17 06:45:00,41.5,39.1,30.01,ESE,122,0.0,2.0,91,0.33,,,0.25,Wunderground v.1.15,2013-04-17 11:45:00,
2013-04-17 06:50:00,41.3,39.2,29.98,SSE,163,1.0,1.0,92,0.25,,,0.27,Wunderground v.1.15,2013-04-17 11:50:00,
2013-04-17 06:55:00,41.2,39.1,29.98,West,274,1.0,2.0,92,0.21,,,0.29,Wunderground v.1.15,2013-04-17 11:55:00,
2013-04-17 07:00:00,41.1,39.0,29.96,SE,136,1.0,1.0,92,0.14,,,0.30,Wunderground v.1.15,2013-04-17 12:00:00,
2013-04-17 07:05:00,40.9,38.8,29.94,SW,217,1.0,2.0,92,0.22,,,0.32,Wunderground v.1.15,2013-04-17 12:05:00,
2013-04-17 07:10:00,40.9,39.0,29.93,WSW,246,1.0,1.0,93,0.20,,,0.34,Wunderground v.1.15,2013-04-17 12:10:00,
2013-04-17 07:20:00,40.8,38.9,29.95,WNW,284,1.0,1.0,93,0.10,,,0.36,Wunderground v.1.15,2013-04-17 12:20:00,
2013-04-17 07:25:00,40.9,39.0,29.96,WNW,300,1.0,2.0,93,0.13,,,0.37,Wunderground v.1.15,2013-04-17 12:25:00,
2013-04-17 07:30:00,41.0,39.1,29.99,West,281,1.0,1.0,93,0.14,,,0.38,Wunderground v.1.15,2013-04-17 12:30:00,
2013-04-17 07:35:00,41.1,39.2,30.00,SE,130,0.0,2.0,93,0.26,,,0.40,Wunderground v.1.15,2013-04-17 12:35:00,
2013-04-17 07:40:00,41.1,39.2,29.99,SSE,159,0.0,2.0,93,0.21,,,0.42,Wunderground v.1.15,2013-04-17 12:40:00,
2013-04-17 07:45:00,41.1,39.2,29.98,WSW,248,0.0,2.0,93,0.31,,,0.45,Wunderground v.1.15,2013-04-17 12:45:00,
2013-04-17 07:50:00,41.0,39.1,29.96,East,98,1.0,2.0,93,0.28,,,0.48,Wunderground v.1.15,2013-04-17 12:50:00,
2013-04-17 08:00:00,40.8,38.9,29.88,SE,125,2.0,3.0,93,0.10,,,0.49,Wunderground v.1.15,2013-04-17 13:00:00,
2013-04-17 08:05:00,40.8,39.2,29.88,West,259,2.0,3.0,94,0.09,,,0.50,Wunderground v.1.15,2013-04-17 13:05:00,
2013-04-17 08:10:00,40.8,39.2,29.94,East,101,2.0,2.0,94,0.06,,,0.50,Wunderground v.1.15,2013-04-17 13:10:00,
2013-04-17 08:15:00,40.9,39.3,29.94,West,259,2.0,2.0,94,0.04,,,0.50,Wunderground v.1.15,2013-04-17 13:15:00,
2013-04-17 08:20:00,40.9,39.0,29.93,East,81,2.0,2.0,93,0.00,,,0.50,Wunderground v.1.15,2013-04-17 13:20:00,
2013-04-17 08:25:00,40.8,38.9,29.95,West,259,2.0,2.0,93,0.00,,,0.50,Wunderground v.1.15,2013-04-17 13:25:00,
2013-04-17 08:30:00,40.7,38.8,30.01,WNW,284,1.0,2.0,93,0.00,,,0.50,Wunderground v.1.15,2013-04-17 13:30:00,
2013-04-17 08:40:00,40.8,38.9,30.01,SE,139,1.0,1.0,93,0.00,,,0.50,Wunderground v.1.15,2013-04-17 13:40:00,
2013-04-17 08:45:00,40.8,38.9,29.99,ESE,107,1.0,2.0,93,0.00,,,0.50,Wunderground v.1.15,2013-04-17 13:45:00,
2013-04-17 08:50:00,40.8,38.9,30.01,WNW,295,0.0,2.0,93,0.00,,,0.50,Wunderground v.1.15,2013-04-17 13:50:00,
2013-04-17 08:55:00,40.9,39.0,30.01,SE,132,0.0,2.0,93,0.00,,,0.50,Wunderground v.1.15,2013-04-17 13:55:00,
2013-04-17 09:00:00,40.8,38.9,30.01,ESE,110,0.0,1.0,93,0.00,,,0.50,Wunderground v.1.15,2013-04-17 14:00:00,
2013-04-17 09:10:00,40.9,39.0,30.01,SE,129,0.0,0.0,93,0.00,,,0.50,Wunderground v.1.15,2013-04-17 14:10:00,
2013-04-17 09:15:00,40.9,39.0,30.01,SE,133,0.0,0.0,93,0.00,,,0.50,Wunderground v.1.15,2013-04-17 14:15:00,
2013-04-17 09:20:00,40.9,39.0,29.98,SSE,148,0.0,1.0,93,0.00,,,0.50,Wunderground v.1.15,2013-04-17 14:20:00,
2013-04-17 09:25:00,40.9,39.0,29.99,ENE,68,0.0,1.0,93,0.00,,,0.50,Wunderground v.1.15,2013-04-17 14:25:00,
2013-04-17 09:30:00,40.9,39.0,29.98,East,89,0.0,2.0,93,0.00,,,0.50,Wunderground v.1.15,2013-04-17 14:30:00,
2013-04-17 09:35:00,40.9,39.0,29.97,East,88,1.0,2.0,93,0.00,,,0.50,Wunderground v.1.15,2013-04-17 14:35:00,
2013-04-17 09:45:00,40.7,38.8,29.97,WSW,253,1.0,2.0,93,0.00,,,0.50,Wunderground v.1.15,2013-04-17 14:45:00,
2013-04-17 09:50:00,40.6,38.7,29.99,East,84,1.0,1.0,93,0.00,,,0.50,Wunderground v.1.15,2013-04-17 14:50:00,
2013-04-17 09:55:00,40.5,38.6,29.98,SE,135,1.0,2.0,93,0.00,,,0.50,Wunderground v.1.15,2013-04-17 14:55:00,
2013-04-17 10:00:00,40.4,38.8,29.98,East,91,1.0,3.0,94,0.00,,,0.50,Wunderground v.1.15,2013-04-17 15:00:00,
2013-04-17 10:05:00,40.4,38.8,29.97,SW,229,0.0,3.0,94,0.00,,,0.50,Wunderground v.1.15,2013-04-17 15:05:00,
2013-04-17 10:10:00,40.5,38.9,29.97,ENE,72,0.0,2.0,94,0.00,,,0.50,Wunderground v.1.15,2013-04-17 15:10:00,
2013-04-17 10:15:00,40.4,38.8,29.97,SE,125,1.0,2.0,94,0.00,,,0.50,Wunderground v.1.15,2013-04-17 15:15:00,
2013-04-17 10:25:00,40.3,38.7,29.96,South,177,1.0,3.0,94,0.00,,,0.50,Wunderground v.1.15,2013-04-17 15:25:00,
2013-04-17 10:30:00,40.4,38.8,29.96,ENE,66,1.0,4.0,94,0.00,,,0.50,Wunderground v.1.15,2013-04-17 15:30:00,
2013-04-17 10:35:00,40.3,38.4,29.95,SSE,152,1.0,4.0,93,0.00,,,0.50,Wunderground v.1.15,2013-04-17 15:35:00,
2013-04-17 10:40:00,40.3,38.7,29.94,NE,56,1.0,2.0,94,0.00,,,0.50,Wunderground v.1.15,2013-04-17 15:40:00,
2013-04-17 10:45:00,40.4,38.8,29.94,ESE,108,1.0,2.0,94,0.00,,,0.50,Wunderground v.1.15,2013-04-17 15:45:00,
2013-04-17 10:50:00,40.4,38.8,29.94,West,280,1.0,3.0,94,0.00,,,0.50,Wunderground v.1.15,2013-04-17 15:50:00,
2013-04-17 11:00:00,40.5,38.9,29.93,ESE,102,1.0,2.0,94,0.00,,,0.50,Wunderground v.1.15,2013-04-17 16:00:00,
2013-04-17 11:10:00,40.7,39.1,29.92,SE,143,2.0,2.0,94,0.00,,,0.50,Wunderground v.1.15,2013-04-17 16:10:00,
2013-04-17 11:15:00,40.7,39.1,29.93,SE,146,1.0,3.0,94,0.00,,,0.50,Wunderground v.1.15,2013-04-17 16:15:00,
2013-04-17 11:20:00,40.8,39.2,29.92,West,262,1.0,2.0,94,0.00,,,0.50,Wunderground v.1.15,2013-04-17 16:20:00,
2013-04-17 11:25:00,40.9,39.3,29.92,East,101,1.0,2.0,94,0.00,,,0.50,Wunderground v.1.15,2013-04-17 16:25:00,
2013-04-17 11:35:00,41.0,39.1,29.91,East,84,1.0,2.0,93,0.00,,,0.50,Wunderground v.1.15,2013-04-17 16:35:00,
2013-04-17 11:40:00,41.1,39.5,29.92,East,93,1.0,1.0,94,0.00,,,0.50,Wunderground v.1.15,2013-04-17 16:40:00,
2013-04-17 11:45:00,41.1,39.2,29.92,ENE,75,1.0,2.0,93,0.00,,,0.50,Wunderground v.1.15,2013-04-17 16:45:00,
2013-04-17 11:50:00,41.2,39.6,29.92,East,101,1.0,2.0,94,0.00,,,0.50,Wunderground v.1.15,2013-04-17 16:50:00,
2013-04-17 11:55:00,41.2,39.6,29.91,East,84,1.0,3.0,94,0.00,,,0.50,Wunderground v.1.15,2013-04-17 16:55:00,
2013-04-17 12:00:00,41.1,39.5,29.91,WSW,256,1.0,1.0,94,0.00,,,0.50,Wunderground v.1.15,2013-04-17 17:00:00,
2013-04-17 12:05:00,41.2,39.6,29.91,ENE,71,1.0,2.0,94,0.00,,,0.50,Wunderground v.1.15,2013-04-17 17:05:00,
2013-04-17 12:10:00,41.2,39.6,29.91,East,96,1.0,1.0,94,0.00,,,0.50,Wunderground v.1.15,2013-04-17 17:10:00,
2013-04-17 12:20:00,41.2,39.9,29.91,East,93,1.0,2.0,95,0.00,,,0.50,Wunderground v.1.15,2013-04-17 17:20:00,
2013-04-17 12:25:00,41.2,39.9,29.91,West,270,1.0,2.0,95,0.00,,,0.50,Wunderground v.1.15,2013-04-17 17:25:00,
2013-04-17 12:30:00,41.2,39.9,29.92,East,90,1.0,2.0,95,0.00,,,0.50,Wunderground v.1.15,2013-04-17 17:30:00,
2013-04-17 12:35:00,41.3,40.0,29.92,West,263,1.0,2.0,95,0.00,,,0.50,Wunderground v.1.15,2013-04-17 17:35:00,
2013-04-17 12:40:00,41.3,40.0,29.91,West,260,1.0,1.0,95,0.00,,,0.50,Wunderground v.1.15,2013-04-17 17:40:00,
2013-04-17 12:45:00,41.5,40.2,29.91,ESE,111,1.0,2.0,95,0.00,,,0.50,Wunderground v.1.15,2013-04-17 17:45:00,
2013-04-17 12:50:00,41.5,40.2,29.90,East,90,1.0,2.0,95,0.00,,,0.50,Wunderground v.1.15,2013-04-17 17:50:00,
2013-04-17 13:00:00,41.7,40.6,29.88,ESE,119,1.0,1.0,96,0.00,,,0.50,Wunderground v.1.15,2013-04-17 18:00:00,
2013-04-17 13:05:00,41.7,40.6,29.87,ESE,115,1.0,2.0,96,0.00,,,0.50,Wunderground v.1.15,2013-04-17 18:05:00,
2013-04-17 13:10:00,41.8,40.7,29.85,North,5,1.0,3.0,96,0.00,,,0.50,Wunderground v.1.15,2013-04-17 18:10:00,
2013-04-17 13:15:00,41.9,40.8,29.85,East,98,1.0,3.0,96,0.00,,,0.50,Wunderground v.1.15,2013-04-17 18:15:00,
2013-04-17 13:20:00,42.0,40.9,29.89,North,356,2.0,2.0,96,0.00,,,0.50,Wunderground v.1.15,2013-04-17 18:20:00,
2013-04-17 13:25:00,42.0,40.9,29.89,ESE,108,1.0,2.0,96,0.00,,,0.50,Wunderground v.1.15,2013-04-17 18:25:00,
2013-04-17 13:30:00,42.1,41.0,29.88,East,97,1.0,2.0,96,0.00,,,0.50,Wunderground v.1.15,2013-04-17 18:30:00,
2013-04-17 13:40:00,42.2,41.1,29.87,West,259,1.0,1.0,96,0.00,,,0.50,Wunderground v.1.15,2013-04-17 18:40:00,
2013-04-17 13:45:00,42.2,41.1,29.89,East,101,1.0,2.0,96,0.00,,,0.51,Wunderground v.1.15,2013-04-17 18:45:00,
2013-04-17 13:50:00,42.2,41.1,29.90,NNW,334,0.0,2.0,96,0.00,,,0.51,Wunderground v.1.15,2013-04-17 18:50:00,
2013-04-17 13:55:00,42.2,40.9,29.89,SE,143,1.0,2.0,95,0.00,,,0.51,Wunderground v.1.15,2013-04-17 18:55:00,
2013-04-17 14:00:00,42.2,41.1,29.88,ESE,112,1.0,1.0,96,0.00,,,0.51,Wunderground v.1.15,2013-04-17 19:00:00,
2013-04-17 14:05:00,42.2,41.1,29.88,WSW,257,0.0,2.0,96,0.00,,,0.51,Wunderground v.1.15,2013-04-17 19:05:00,
2013-04-17 14:15:00,42.3,41.2,29.88,ENE,72,0.0,2.0,96,0.00,,,0.51,Wunderground v.1.15,2013-04-17 19:15:00,
2013-04-17 14:20:00,42.3,41.2,29.87,WSW,250,1.0,1.0,96,0.00,,,0.51,Wunderground v.1.15,2013-04-17 19:20:00,
2013-04-17 14:25:00,42.4,41.3,29.87,WNW,300,1.0,2.0,96,0.00,,,0.51,Wunderground v.1.15,2013-04-17 19:25:00,
2013-04-17 14:30:00,42.5,41.4,29.86,ESE,107,1.0,2.0,96,0.00,,,0.51,Wunderground v.1.15,2013-04-17 19:30:00,
2013-04-17 14:35:00,42.6,41.5,29.86,SSE,160,1.0,2.0,96,0.00,,,0.51,Wunderground v.1.15,2013-04-17 19:35:00,
2013-04-17 14:40:00,42.7,41.6,29.86,NE,44,1.0,1.0,96,0.00,,,0.51,Wunderground v.1.15,2013-04-17 19:40:00,
2013-04-17 14:45:00,42.8,41.7,29.85,East,79,1.0,2.0,96,0.00,,,0.51,Wunderground v.1.15,2013-04-17 19:45:00,
2013-04-17 14:55:00,42.9,41.8,29.86,East,82,1.0,2.0,96,0.00,,,0.51,Wunderground v.1.15,2013-04-17 19:55:00,
2013-04-17 15:00:00,42.9,41.8,29.86,ENE,73,1.0,2.0,96,0.00,,,0.51,Wunderground v.1.15,2013-04-17 20:00:00,
2013-04-17 15:05:00,43.0,41.9,29.85,ENE,61,1.0,2.0,96,0.00,,,0.51,Wunderground v.1.15,2013-04-17 20:05:00,
2013-04-17 15:10:00,43.1,42.0,29.84,ESE,117,1.0,1.0,96,0.00,,,0.51,Wunderground v.1.15,2013-04-17 20:10:00,
2013-04-17 15:15:00,43.1,42.0,29.84,SE,138,1.0,2.0,96,0.00,,,0.51,Wunderground v.1.15,2013-04-17 20:15:00,
2013-04-17 15:20:00,43.0,41.9,29.82,SW,229,1.0,1.0,96,0.00,,,0.51,Wunderground v.1.15,2013-04-17 20:20:00,
2013-04-17 15:30:00,42.9,41.8,29.82,WNW,301,1.0,1.0,96,0.00,,,0.51,Wunderground v.1.15,2013-04-17 20:30:00,
2013-04-17 15:35:00,42.9,41.8,29.81,West,264,1.0,2.0,96,0.00,,,0.51,Wunderground v.1.15,2013-04-17 20:35:00,
2013-04-17 15:40:00,42.9,41.8,29.81,SW,231,1.0,2.0,96,0.00,,,0.51,Wunderground v.1.15,2013-04-17 20:40:00,
2013-04-17 15:45:00,42.8,41.7,29.82,WSW,253,1.0,2.0,96,0.00,,,0.51,Wunderground v.1.15,2013-04-17 20:45:00,
2013-04-17 15:50:00,42.7,41.4,29.79,ESE,107,1.0,2.0,95,0.00,,,0.51,Wunderground v.1.15,2013-04-17 20:50:00,
2013-04-17 15:55:00,42.7,41.4,29.78,East,101,1.0,2.0,95,0.00,,,0.51,Wunderground v.1.15,2013-04-17 20:55:00,
2013-04-17 16:00:00,42.7,41.6,29.78,ESE,102,2.0,2.0,96,0.00,,,0.51,Wunderground v.1.15,2013-04-17 21:00:00,
2013-04-17 16:10:00,42.7,41.4,29.80,SE,131,1.0,2.0,95,0.00,,,0.51,Wunderground v.1.15,2013-04-17 21:10:00,
2013-04-17 16:15:00,42.6,41.3,29.79,ESE,110,1.0,2.0,95,0.00,,,0.51,Wunderground v.1.15,2013-04-17 21:15:00,
2013-04-17 16:20:00,42.5,41.2,29.80,ESE,104,1.0,2.0,95,0.00,,,0.52,Wunderground v.1.15,2013-04-17 21:20:00,
2013-04-17 16:25:00,42.3,41.0,29.81,ESE,112,1.0,2.0,95,0.00,,,0.52,Wunderground v.1.15,2013-04-17 21:25:00,
2013-04-17 16:30:00,42.0,40.7,29.82,East,95,1.0,1.0,95,0.00,,,0.52,Wunderground v.1.15,2013-04-17 21:30:00,
2013-04-17 16:35:00,41.8,40.5,29.81,WNW,292,1.0,2.0,95,0.00,,,0.52,Wunderground v.1.15,2013-04-17 21:35:00,
2013-04-17 16:40:00,41.7,40.4,29.82,East,101,0.0,2.0,95,0.00,,,0.52,Wunderground v.1.15,2013-04-17 21:40:00,
2013-04-17 16:50:00,41.5,40.2,29.84,East,99,1.0,2.0,95,0.00,,,0.52,Wunderground v.1.15,2013-04-17 21:50:00,
2013-04-17 16:55:00,41.5,40.2,29.86,East,86,0.0,2.0,95,2.57,,,0.58,Wunderground v.1.15,2013-04-17 21:55:00,
2013-04-17 17:00:00,41.3,40.0,29.85,West,278,0.0,2.0,95,0.38,,,0.64,Wunderground v.1.15,2013-04-17 22:00:00,
2013-04-17 17:05:00,41.2,39.9,29.84,SE,124,0.0,2.0,95,0.59,,,0.70,Wunderground v.1.15,2013-04-17 22:05:00,
2013-04-17 17:10:00,41.1,39.8,29.86,NE,49,0.0,2.0,95,0.16,,,0.71,Wunderground v.1.15,2013-04-17 22:10:00,
2013-04-17 17:15:00,41.1,40.0,29.89,West,259,0.0,2.0,96,0.10,,,0.72,Wunderground v.1.15,2013-04-17 22:15:00,
2013-04-17 17:25:00,41.2,40.1,29.88,West,264,0.0,2.0,96,0.06,,,0.73,Wunderground v.1.15,2013-04-17 22:25:00,
2013-04-17 17:35:00,41.1,40.0,29.93,WSW,239,0.0,2.0,96,0.16,,,0.76,Wunderground v.1.15,2013-04-17 22:35:00,
2013-04-17 17:40:00,41.1,40.0,29.87,WSW,240,0.0,2.0,96,0.27,,,0.78,Wunderground v.1.15,2013-04-17 22:40:00,
2013-04-17 17:45:00,41.1,40.0,29.84,WNW,300,0.0,2.0,96,0.25,,,0.80,Wunderground v.1.15,2013-04-17 22:45:00,
2013-04-17 17:50:00,41.0,39.9,29.83,East,84,1.0,1.0,96,0.16,,,0.82,Wunderground v.1.15,2013-04-17 22:50:00,
2013-04-17 17:55:00,40.9,39.8,29.79,NE,41,1.0,2.0,96,0.11,,,0.82,Wunderground v.1.15,2013-04-17 22:55:00,
2013-04-17 18:00:00,40.8,39.7,29.75,WSW,252,1.0,2.0,96,0.06,,,0.82,Wunderground v.1.15,2013-04-17 23:00:00,
2013-04-17 18:10:00,40.6,39.5,29.72,ENE,70,1.0,2.0,96,0.05,,,0.83,Wunderground v.1.15,2013-04-17 23:10:00,
2013-04-17 18:15:00,40.6,39.5,29.74,South,179,2.0,2.0,96,0.05,,,0.83,Wunderground v.1.15,2013-04-17 23:15:00,
2013-04-17 18:20:00,40.7,39.6,29.74,ESE,104,2.0,2.0,96,0.04,,,0.83,Wunderground v.1.15,2013-04-17 23:20:00,
2013-04-17 18:25:00,40.7,39.6,29.72,ESE,110,3.0,4.0,96,0.00,,,0.83,Wunderground v.1.15,2013-04-17 23:25:00,
2013-04-17 18:30:00,40.7,39.6,29.70,East,93,3.0,6.0,96,0.00,,,0.83,Wunderground v.1.15,2013-04-17 23:30:00,
2013-04-17 18:35:00,40.6,39.5,29.71,East,96,3.0,6.0,96,0.00,,,0.83,Wunderground v.1.15,2013-04-17 23:35:00,
2013-04-17 18:40:00,40.6,39.5,29.71,South,191,3.0,3.0,96,0.00,,,0.83,Wunderground v.1.15,2013-04-17 23:40:00,
2013-04-17 18:50:00,40.5,39.4,29.73,West,267,3.0,3.0,96,0.00,,,0.83,Wunderground v.1.15,2013-04-17 23:50:00,
2013-04-17 18:55:00,40.6,39.3,29.77,East,96,2.0,3.0,95,0.00,,,0.83,Wunderground v.1.15,2013-04-17 23:55:00,
2013-04-17 19:00:00,40.6,39.3,29.78,ESE,118,2.0,2.0,95,0.00,,,0.83,Wunderground v.1.15,2013-04-18 00:00:00,
2013-04-17 19:05:00,40.6,39.3,29.80,NW,305,2.0,2.0,95,0.00,,,0.83,Wunderground v.1.15,2013-04-18 00:05:00,
2013-04-17 19:10:00,40.6,39.3,29.80,ESE,107,2.0,3.0,95,0.00,,,0.83,Wunderground v.1.15,2013-04-18 00:10:00,
2013-04-17 19:15:00,40.5,39.2,29.80,ESE,116,2.0,3.0,95,0.00,,,0.83,Wunderground v.1.15,2013-04-18 00:15:00,
2013-04-17 19:20:00,40.5,39.2,29.82,ENE,77,2.0,2.0,95,0.00,,,0.83,Wunderground v.1.15,2013-04-18 00:20:00,
2013-04-17 19:30:00,40.4,39.1,29.83,ESE,116,2.0,2.0,95,0.00,,,0.83,Wunderground v.1.15,2013-04-18 00:30:00,
2013-04-17 19:35:00,40.3,39.0,29.83,East,95,2.0,2.0,95,0.00,,,0.83,Wunderground v.1.15,2013-04-18 00:35:00,
2013-04-17 19:40:00,40.1,38.8,29.82,East,82,2.0,2.0,95,0.00,,,0.83,Wunderground v.1.15,2013-04-18 00:40:00,
2013-04-17 19:45:00,40.0,38.7,29.82,ESE,122,2.0,2.0,95,0.00,,,0.83,Wunderground v.1.15,2013-04-18 00:45:00,
2013-04-17 19:50:00,39.9,38.6,29.83,East,91,2.0,2.0,95,0.00,,,0.83,Wunderground v.1.15,2013-04-18 00:50:00,
2013-04-17 20:00:00,39.7,38.4,29.84,East,91,2.0,4.0,95,0.00,,,0.83,Wunderground v.1.15,2013-04-18 01:00:00,
2013-04-17 20:05:00,39.6,38.0,29.85,ENE,63,2.0,4.0,94,0.00,,,0.83,Wunderground v.1.15,2013-04-18 01:05:00,
2013-04-17 20:10:00,39.6,38.0,29.85,West,262,2.0,2.0,94,0.00,,,0.83,Wunderground v.1.15,2013-04-18 01:10:00,
2013-04-17 20:20:00,39.5,37.9,29.84,East,84,2.0,3.0,94,0.00,,,0.83,Wunderground v.1.15,2013-04-18 01:20:00,
2013-04-17 20:25:00,39.4,37.8,29.82,SE,146,3.0,3.0,94,0.00,,,0.83,Wunderground v.1.15,2013-04-18 01:25:00,
2013-04-17 20:30:00,39.3,37.7,29.83,East,101,3.0,3.0,94,0.00,,,0.83,Wunderground v.1.15,2013-04-18 01:30:00,
2013-04-17 20:35:00,39.2,37.6,29.84,ESE,123,3.0,3.0,94,0.00,,,0.83,Wunderground v.1.15,2013-04-18 01:35:00,
2013-04-17 20:40:00,39.2,37.6,29.84,ESE,119,2.0,2.0,94,0.00,,,0.83,Wunderground v.1.15,2013-04-18 01:40:00,
2013-04-17 20:45:00,39.1,37.5,29.84,SSW,197,2.0,3.0,94,0.00,,,0.83,Wunderground v.1.15,2013-04-18 01:45:00,
2013-04-17 20:55:00,39.1,37.2,29.84,ENE,68,3.0,8.0,93,0.00,,,0.83,Wunderground v.1.15,2013-04-18 01:55:00,
2013-04-17 21:05:00,39.1,37.2,29.83,NNE,19,3.0,3.0,93,0.00,,,0.83,Wunderground v.1.15,2013-04-18 02:05:00,
2013-04-17 21:10:00,39.1,37.2,29.83,West,276,3.0,3.0,93,0.00,,,0.83,Wunderground v.1.15,2013-04-18 02:10:00,
2013-04-17 21:15:00,39.1,37.2,29.84,ENE,75,3.0,6.0,93,0.00,,,0.83,Wunderground v.1.15,2013-04-18 02:15:00,
2013-04-17 21:20:00,39.1,37.2,29.84,SE,133,3.0,4.0,93,0.00,,,0.83,Wunderground v.1.15,2013-04-18 02:20:00,
2013-04-17 21:25:00,39.1,37.2,29.84,SSW,211,2.0,4.0,93,0.00,,,0.83,Wunderground v.1.15,2013-04-18 02:25:00,
2013-04-17 21:30:00,39.1,37.2,29.84,East,84,2.0,3.0,93,0.00,,,0.83,Wunderground v.1.15,2013-04-18 02:30:00,
2013-04-17 21:35:00,39.0,37.1,29.84,North,1,3.0,3.0,93,0.00,,,0.83,Wunderground v.1.15,2013-04-18 02:35:00,
2013-04-17 21:45:00,38.9,37.0,29.84,East,91,3.0,5.0,93,0.00,,,0.83,Wunderground v.1.15,2013-04-18 02:45:00,
2013-04-17 21:50:00,38.8,36.9,29.84,NNW,334,3.0,3.0,93,0.00,,,0.83,Wunderground v.1.15,2013-04-18 02:50:00,
2013-04-17 21:55:00,38.7,36.9,29.84,ESE,118,2.0,3.0,93,0.00,,,0.83,Wunderground v.1.15,2013-04-18 02:55:00,
2013-04-17 22:00:00,38.7,36.9,29.84,SSE,149,3.0,3.0,93,0.00,,,0.83,Wunderground v.1.15,2013-04-18 03:00:00,
2013-04-17 22:05:00,38.6,36.8,29.84,WNW,295,3.0,3.0,93,0.00,,,0.83,Wunderground v.1.15,2013-04-18 03:05:00,
2013-04-17 22:10:00,38.5,36.7,29.83,ENE,70,3.0,3.0,93,0.00,,,0.83,Wunderground v.1.15,2013-04-18 03:10:00,
2013-04-17 22:15:00,38.4,36.6,29.84,NE,52,3.0,7.0,93,0.00,,,0.83,Wunderground v.1.15,2013-04-18 03:15:00,
2013-04-17 22:25:00,38.4,36.6,29.83,SSW,197,3.0,5.0,93,0.00,,,0.83,Wunderground v.1.15,2013-04-18 03:25:00,
2013-04-17 22:30:00,38.2,36.4,29.83,North,349,3.0,5.0,93,0.00,,,0.83,Wunderground v.1.15,2013-04-18 03:30:00,
2013-04-17 22:35:00,38.1,36.5,29.83,ENE,68,3.0,5.0,94,0.00,,,0.83,Wunderground v.1.15,2013-04-18 03:35:00,
2013-04-17 22:40:00,38.0,36.4,29.83,ESE,107,3.0,7.0,94,0.00,,,0.83,Wunderground v.1.15,2013-04-18 03:40:00,
2013-04-17 22:45:00,37.9,36.3,29.83,ESE,105,4.0,7.0,94,0.00,,,0.83,Wunderground v.1.15,2013-04-18 03:45:00,
2013-04-17 22:50:00,37.8,36.2,29.83,ENE,77,4.0,4.0,94,0.00,,,0.83,Wunderground v.1.15,2013-04-18 03:50:00,
2013-04-17 22:55:00,37.7,36.1,29.83,NE,34,3.0,4.0,94,0.00,,,0.83,Wunderground v.1.15,2013-04-18 03:55:00,
2013-04-17 23:05:00,37.5,36.2,29.83,SW,231,3.0,5.0,95,0.00,,,0.83,Wunderground v.1.15,2013-04-18 04:05:00,
2013-04-17 23:10:00,37.4,36.1,29.83,West,280,3.0,3.0,95,0.00,,,0.83,Wunderground v.1.15,2013-04-18 04:10:00,
2013-04-17 23:15:00,37.3,36.0,29.83,SSE,148,3.0,4.0,95,0.00,,,0.83,Wunderground v.1.15,2013-04-18 04:15:00,
2013-04-17 23:25:00,37.1,35.8,29.82,East,101,4.0,5.0,95,0.00,,,0.83,Wunderground v.1.15,2013-04-18 04:25:00,
2013-04-17 23:30:00,37.1,35.8,29.82,NE,44,4.0,7.0,95,0.00,,,0.83,Wunderground v.1.15,2013-04-18 04:30:00,
2013-04-17 23:35:00,37.0,35.7,29.82,NNW,336,4.0,7.0,95,0.00,,,0.83,Wunderground v.1.15,2013-04-18 04:35:00,
2013-04-17 23:40:00,36.9,35.6,29.82,North,10,4.0,4.0,95,0.00,,,0.83,Wunderground v.1.15,2013-04-18 04:40:00,
2013-04-17 23:45:00,36.8,35.5,29.82,SE,132,4.0,4.0,95,0.00,,,0.83,Wunderground v.1.15,2013-04-18 04:45:00,
2013-04-17 23:50:00,36.8,35.5,29.83,SE,127,4.0,4.0,95,0.00,,,0.83,Wunderground v.1.15,2013-04-18 04:50:00,
2013-04-17 23:55:00,36.8,35.5,29.83,ENE,62,4.0,8.0,95,0.00,,,0.83,Wunderground v.1.15,2013-04-18 04:55:00,